sensor_id;sensor_type;location;lat;lon;timestamp;temperature;humidity
30304;DHT22;17112;48.636;10.152;2024-01-16T00:01:10;1.80;63.20
30304;DHT22;17112;48.636;10.152;2024-01-16T00:03:37;1.80;63.10
30304;DHT22;17112;48.636;10.152;2024-01-16T00:06:03;1.70;63.10
30304;DHT22;17112;48.636;10.152;2024-01-16T00:08:29;1.70;63.00
30304;DHT22;17112;48.636;10.152;2024-01-16T00:10:55;1.70;63.00
30304;DHT22;17112;48.636;10.152;2024-01-16T00:13:21;1.70;63.00
30304;DHT22;17112;48.636;10.152;2024-01-16T00:15:47;1.70;63.00
30304;DHT22;17112;48.636;10.152;2024-01-16T00:18:15;1.60;63.00
30304;DHT22;17112;48.636;10.152;2024-01-16T00:20:40;1.60;63.00
30304;DHT22;17112;48.636;10.152;2024-01-16T00:23:06;1.60;63.00
30304;DHT22;17112;48.636;10.152;2024-01-16T00:25:32;1.50;63.00
30304;DHT22;17112;48.636;10.152;2024-01-16T00:27:57;1.50;63.00
30304;DHT22;17112;48.636;10.152;2024-01-16T00:30:23;1.50;62.90
30304;DHT22;17112;48.636;10.152;2024-01-16T00:32:49;1.40;63.10
30304;DHT22;17112;48.636;10.152;2024-01-16T00:35:15;1.40;63.10
30304;DHT22;17112;48.636;10.152;2024-01-16T00:37:41;1.40;63.10
30304;DHT22;17112;48.636;10.152;2024-01-16T00:40:07;1.40;63.20
30304;DHT22;17112;48.636;10.152;2024-01-16T00:42:34;1.30;63.10
30304;DHT22;17112;48.636;10.152;2024-01-16T00:45:00;1.30;63.20
30304;DHT22;17112;48.636;10.152;2024-01-16T00:47:26;1.30;63.10
30304;DHT22;17112;48.636;10.152;2024-01-16T00:49:52;1.30;63.30
30304;DHT22;17112;48.636;10.152;2024-01-16T00:52:18;1.30;63.30
30304;DHT22;17112;48.636;10.152;2024-01-16T00:54:44;1.40;63.50
30304;DHT22;17112;48.636;10.152;2024-01-16T00:57:10;1.20;63.40
30304;DHT22;17112;48.636;10.152;2024-01-16T00:59:36;1.20;63.40
30304;DHT22;17112;48.636;10.152;2024-01-16T01:02:02;1.20;63.40
30304;DHT22;17112;48.636;10.152;2024-01-16T01:04:29;1.10;63.40
30304;DHT22;17112;48.636;10.152;2024-01-16T01:06:55;1.20;63.40
30304;DHT22;17112;48.636;10.152;2024-01-16T01:09:20;1.10;63.40
30304;DHT22;17112;48.636;10.152;2024-01-16T01:11:46;1.10;63.40
30304;DHT22;17112;48.636;10.152;2024-01-16T01:14:12;1.10;63.40
30304;DHT22;17112;48.636;10.152;2024-01-16T01:16:37;1.10;63.40
30304;DHT22;17112;48.636;10.152;2024-01-16T01:19:03;1.10;63.50
30304;DHT22;17112;48.636;10.152;2024-01-16T01:21:29;1.10;63.50
30304;DHT22;17112;48.636;10.152;2024-01-16T01:23:55;1.10;63.60
30304;DHT22;17112;48.636;10.152;2024-01-16T01:26:20;1.00;63.60
30304;DHT22;17112;48.636;10.152;2024-01-16T01:28:46;1.00;63.50
30304;DHT22;17112;48.636;10.152;2024-01-16T01:31:12;1.00;63.60
30304;DHT22;17112;48.636;10.152;2024-01-16T01:33:39;1.00;63.60
30304;DHT22;17112;48.636;10.152;2024-01-16T01:36:04;1.00;63.40
30304;DHT22;17112;48.636;10.152;2024-01-16T01:38:30;1.00;63.40
30304;DHT22;17112;48.636;10.152;2024-01-16T01:40:56;1.00;63.30
30304;DHT22;17112;48.636;10.152;2024-01-16T01:43:23;0.90;63.30
30304;DHT22;17112;48.636;10.152;2024-01-16T01:46:11;1.00;63.40
30304;DHT22;17112;48.636;10.152;2024-01-16T01:48:40;0.80;63.20
30304;DHT22;17112;48.636;10.152;2024-01-16T01:51:07;0.80;63.30
30304;DHT22;17112;48.636;10.152;2024-01-16T01:53:48;0.70;63.40
30304;DHT22;17112;48.636;10.152;2024-01-16T01:56:17;0.70;63.50
30304;DHT22;17112;48.636;10.152;2024-01-16T01:58:44;0.80;63.80
30304;DHT22;17112;48.636;10.152;2024-01-16T02:01:11;0.70;63.80
30304;DHT22;17112;48.636;10.152;2024-01-16T02:03:42;0.70;63.70
30304;DHT22;17112;48.636;10.152;2024-01-16T02:06:09;0.70;63.70
30304;DHT22;17112;48.636;10.152;2024-01-16T02:08:35;0.80;63.80
30304;DHT22;17112;48.636;10.152;2024-01-16T02:11:01;0.60;63.90
30304;DHT22;17112;48.636;10.152;2024-01-16T02:13:28;0.60;64.00
30304;DHT22;17112;48.636;10.152;2024-01-16T02:15:53;0.60;64.00
30304;DHT22;17112;48.636;10.152;2024-01-16T02:18:19;0.60;64.00
30304;DHT22;17112;48.636;10.152;2024-01-16T02:20:46;0.60;64.00
30304;DHT22;17112;48.636;10.152;2024-01-16T02:23:14;0.60;64.10
30304;DHT22;17112;48.636;10.152;2024-01-16T02:25:41;0.50;64.00
30304;DHT22;17112;48.636;10.152;2024-01-16T02:28:07;0.60;64.10
30304;DHT22;17112;48.636;10.152;2024-01-16T02:30:33;0.60;64.20
30304;DHT22;17112;48.636;10.152;2024-01-16T02:32:59;0.50;64.10
30304;DHT22;17112;48.636;10.152;2024-01-16T02:35:25;0.60;64.30
30304;DHT22;17112;48.636;10.152;2024-01-16T02:37:50;0.70;64.40
30304;DHT22;17112;48.636;10.152;2024-01-16T02:40:16;0.60;64.40
30304;DHT22;17112;48.636;10.152;2024-01-16T02:42:42;0.60;64.30
30304;DHT22;17112;48.636;10.152;2024-01-16T02:45:16;0.50;64.10
30304;DHT22;17112;48.636;10.152;2024-01-16T02:47:42;0.60;64.20
30304;DHT22;17112;48.636;10.152;2024-01-16T02:50:08;0.50;64.10
30304;DHT22;17112;48.636;10.152;2024-01-16T02:52:35;0.60;64.20
30304;DHT22;17112;48.636;10.152;2024-01-16T02:55:02;0.50;64.20
30304;DHT22;17112;48.636;10.152;2024-01-16T02:57:28;0.60;64.20
30304;DHT22;17112;48.636;10.152;2024-01-16T02:59:54;0.60;64.20
30304;DHT22;17112;48.636;10.152;2024-01-16T03:02:19;0.60;64.30
30304;DHT22;17112;48.636;10.152;2024-01-16T03:04:45;0.60;64.40
30304;DHT22;17112;48.636;10.152;2024-01-16T03:07:11;0.60;64.40
30304;DHT22;17112;48.636;10.152;2024-01-16T03:09:36;0.60;64.30
30304;DHT22;17112;48.636;10.152;2024-01-16T03:12:02;0.80;64.40
30304;DHT22;17112;48.636;10.152;2024-01-16T03:14:28;0.70;64.20
30304;DHT22;17112;48.636;10.152;2024-01-16T03:17:02;0.60;64.20
30304;DHT22;17112;48.636;10.152;2024-01-16T03:19:28;0.70;64.20
30304;DHT22;17112;48.636;10.152;2024-01-16T03:21:53;0.70;64.10
30304;DHT22;17112;48.636;10.152;2024-01-16T03:24:19;0.60;64.00
30304;DHT22;17112;48.636;10.152;2024-01-16T03:26:45;0.70;64.10
30304;DHT22;17112;48.636;10.152;2024-01-16T03:29:11;0.60;64.10
30304;DHT22;17112;48.636;10.152;2024-01-16T03:31:37;0.70;64.10
30304;DHT22;17112;48.636;10.152;2024-01-16T03:34:02;0.60;64.80
30304;DHT22;17112;48.636;10.152;2024-01-16T03:36:28;0.70;64.30
30304;DHT22;17112;48.636;10.152;2024-01-16T03:38:54;0.70;64.30
30304;DHT22;17112;48.636;10.152;2024-01-16T03:41:20;0.80;64.30
30304;DHT22;17112;48.636;10.152;2024-01-16T03:43:45;0.60;64.20
30304;DHT22;17112;48.636;10.152;2024-01-16T03:46:11;1.00;64.30
30304;DHT22;17112;48.636;10.152;2024-01-16T03:48:38;0.60;64.60
30304;DHT22;17112;48.636;10.152;2024-01-16T03:51:05;0.60;64.00
30304;DHT22;17112;48.636;10.152;2024-01-16T03:53:32;0.90;64.20
30304;DHT22;17112;48.636;10.152;2024-01-16T03:55:58;0.80;64.20
30304;DHT22;17112;48.636;10.152;2024-01-16T03:58:23;0.60;64.00
30304;DHT22;17112;48.636;10.152;2024-01-16T04:00:49;0.80;64.20
30304;DHT22;17112;48.636;10.152;2024-01-16T04:03:16;0.60;64.00
30304;DHT22;17112;48.636;10.152;2024-01-16T04:05:42;0.60;64.10
30304;DHT22;17112;48.636;10.152;2024-01-16T04:08:08;0.50;64.10
30304;DHT22;17112;48.636;10.152;2024-01-16T04:10:34;0.50;64.10
30304;DHT22;17112;48.636;10.152;2024-01-16T04:13:03;0.50;64.00
30304;DHT22;17112;48.636;10.152;2024-01-16T04:15:28;0.50;63.90
30304;DHT22;17112;48.636;10.152;2024-01-16T04:17:54;0.60;64.00
30304;DHT22;17112;48.636;10.152;2024-01-16T04:20:20;0.40;63.90
30304;DHT22;17112;48.636;10.152;2024-01-16T04:22:46;0.40;64.00
30304;DHT22;17112;48.636;10.152;2024-01-16T04:25:12;0.30;64.00
30304;DHT22;17112;48.636;10.152;2024-01-16T04:27:38;0.30;64.10
30304;DHT22;17112;48.636;10.152;2024-01-16T04:30:04;0.40;64.20
30304;DHT22;17112;48.636;10.152;2024-01-16T04:32:30;0.20;64.10
30304;DHT22;17112;48.636;10.152;2024-01-16T04:34:56;0.40;64.30
30304;DHT22;17112;48.636;10.152;2024-01-16T04:37:22;0.20;64.20
30304;DHT22;17112;48.636;10.152;2024-01-16T04:39:48;0.30;64.30
30304;DHT22;17112;48.636;10.152;2024-01-16T04:42:13;0.10;64.10
30304;DHT22;17112;48.636;10.152;2024-01-16T04:44:39;0.10;64.10
30304;DHT22;17112;48.636;10.152;2024-01-16T04:47:05;0.00;64.10
30304;DHT22;17112;48.636;10.152;2024-01-16T04:49:30;0.00;64.20
30304;DHT22;17112;48.636;10.152;2024-01-16T04:51:56;0.10;64.30
30304;DHT22;17112;48.636;10.152;2024-01-16T04:54:22;-0.10;64.30
30304;DHT22;17112;48.636;10.152;2024-01-16T04:56:47;-0.10;64.40
30304;DHT22;17112;48.636;10.152;2024-01-16T04:59:13;0.10;64.70
30304;DHT22;17112;48.636;10.152;2024-01-16T05:01:39;0.00;64.70
30304;DHT22;17112;48.636;10.152;2024-01-16T05:04:05;-0.10;64.60
30304;DHT22;17112;48.636;10.152;2024-01-16T05:06:30;-0.20;64.50
30304;DHT22;17112;48.636;10.152;2024-01-16T05:08:56;-0.10;64.40
30304;DHT22;17112;48.636;10.152;2024-01-16T05:11:22;-0.30;64.20
30304;DHT22;17112;48.636;10.152;2024-01-16T05:13:49;-0.30;64.20
30304;DHT22;17112;48.636;10.152;2024-01-16T05:16:15;-0.40;64.80
30304;DHT22;17112;48.636;10.152;2024-01-16T05:18:43;-0.40;64.30
30304;DHT22;17112;48.636;10.152;2024-01-16T05:21:09;-0.50;64.20
30304;DHT22;17112;48.636;10.152;2024-01-16T05:23:35;-0.50;64.30
30304;DHT22;17112;48.636;10.152;2024-01-16T05:26:00;-0.60;64.30
30304;DHT22;17112;48.636;10.152;2024-01-16T05:28:26;-0.60;64.40
30304;DHT22;17112;48.636;10.152;2024-01-16T05:30:52;-0.50;64.50
30304;DHT22;17112;48.636;10.152;2024-01-16T05:33:17;-0.70;64.50
30304;DHT22;17112;48.636;10.152;2024-01-16T05:35:43;-0.80;64.50
30304;DHT22;17112;48.636;10.152;2024-01-16T05:38:09;-0.60;64.80
30304;DHT22;17112;48.636;10.152;2024-01-16T05:40:34;-0.80;64.70
30304;DHT22;17112;48.636;10.152;2024-01-16T05:43:00;-0.90;64.90
30304;DHT22;17112;48.636;10.152;2024-01-16T05:45:27;-0.90;64.90
30304;DHT22;17112;48.636;10.152;2024-01-16T05:47:53;-0.90;64.90
30304;DHT22;17112;48.636;10.152;2024-01-16T05:50:19;-1.00;64.90
30304;DHT22;17112;48.636;10.152;2024-01-16T05:52:44;-1.00;64.90
30304;DHT22;17112;48.636;10.152;2024-01-16T05:55:10;-1.00;64.90
30304;DHT22;17112;48.636;10.152;2024-01-16T05:57:36;-0.80;65.00
30304;DHT22;17112;48.636;10.152;2024-01-16T06:00:03;-1.00;64.80
30304;DHT22;17112;48.636;10.152;2024-01-16T06:02:30;-1.10;64.80
30304;DHT22;17112;48.636;10.152;2024-01-16T06:04:56;-0.90;64.80
30304;DHT22;17112;48.636;10.152;2024-01-16T06:07:22;-1.10;64.70
30304;DHT22;17112;48.636;10.152;2024-01-16T06:09:47;-1.10;64.70
30304;DHT22;17112;48.636;10.152;2024-01-16T06:12:13;-1.10;64.70
30304;DHT22;17112;48.636;10.152;2024-01-16T06:14:39;-1.00;64.80
30304;DHT22;17112;48.636;10.152;2024-01-16T06:17:05;-0.90;64.80
30304;DHT22;17112;48.636;10.152;2024-01-16T06:19:32;-1.30;64.60
30304;DHT22;17112;48.636;10.152;2024-01-16T06:21:59;-1.30;64.60
30304;DHT22;17112;48.636;10.152;2024-01-16T06:24:25;-1.30;64.70
30304;DHT22;17112;48.636;10.152;2024-01-16T06:26:50;-1.40;64.70
30304;DHT22;17112;48.636;10.152;2024-01-16T06:29:16;-1.40;64.80
30304;DHT22;17112;48.636;10.152;2024-01-16T06:31:42;-1.40;64.90
30304;DHT22;17112;48.636;10.152;2024-01-16T06:34:07;-1.40;64.90
30304;DHT22;17112;48.636;10.152;2024-01-16T06:36:34;-1.40;64.90
30304;DHT22;17112;48.636;10.152;2024-01-16T06:38:59;-1.50;64.90
30304;DHT22;17112;48.636;10.152;2024-01-16T06:41:25;-1.50;65.00
30304;DHT22;17112;48.636;10.152;2024-01-16T06:43:50;-1.50;65.00
30304;DHT22;17112;48.636;10.152;2024-01-16T06:46:16;-1.50;65.10
30304;DHT22;17112;48.636;10.152;2024-01-16T06:48:43;-1.50;65.20
30304;DHT22;17112;48.636;10.152;2024-01-16T06:51:08;-1.50;65.10
30304;DHT22;17112;48.636;10.152;2024-01-16T06:53:36;-1.50;65.10
30304;DHT22;17112;48.636;10.152;2024-01-16T06:56:01;-1.50;65.10
30304;DHT22;17112;48.636;10.152;2024-01-16T06:58:28;-1.50;65.10
30304;DHT22;17112;48.636;10.152;2024-01-16T07:00:54;-1.50;65.10
30304;DHT22;17112;48.636;10.152;2024-01-16T07:03:20;-1.50;65.20
30304;DHT22;17112;48.636;10.152;2024-01-16T07:05:46;-1.50;65.20
30304;DHT22;17112;48.636;10.152;2024-01-16T07:08:12;-1.50;65.20
30304;DHT22;17112;48.636;10.152;2024-01-16T07:10:37;-1.50;65.20
30304;DHT22;17112;48.636;10.152;2024-01-16T07:13:03;-1.40;65.30
30304;DHT22;17112;48.636;10.152;2024-01-16T07:15:29;-1.40;65.30
30304;DHT22;17112;48.636;10.152;2024-01-16T07:17:54;-1.40;65.30
30304;DHT22;17112;48.636;10.152;2024-01-16T07:20:20;-1.40;65.30
30304;DHT22;17112;48.636;10.152;2024-01-16T07:22:46;-1.40;65.30
30304;DHT22;17112;48.636;10.152;2024-01-16T07:25:12;-1.40;65.30
30304;DHT22;17112;48.636;10.152;2024-01-16T07:27:37;-1.40;65.30
30304;DHT22;17112;48.636;10.152;2024-01-16T07:30:06;-1.30;65.30
30304;DHT22;17112;48.636;10.152;2024-01-16T07:32:32;-1.40;65.10
30304;DHT22;17112;48.636;10.152;2024-01-16T07:34:59;-1.30;65.20
30304;DHT22;17112;48.636;10.152;2024-01-16T07:37:25;-1.30;65.20
30304;DHT22;17112;48.636;10.152;2024-01-16T07:39:51;-1.30;65.20
30304;DHT22;17112;48.636;10.152;2024-01-16T07:42:16;-1.30;65.30
30304;DHT22;17112;48.636;10.152;2024-01-16T07:44:43;-1.30;65.30
30304;DHT22;17112;48.636;10.152;2024-01-16T07:47:09;-1.20;65.30
30304;DHT22;17112;48.636;10.152;2024-01-16T07:49:35;-1.20;65.20
30304;DHT22;17112;48.636;10.152;2024-01-16T07:52:00;-1.20;65.20
30304;DHT22;17112;48.636;10.152;2024-01-16T07:54:26;-1.10;65.30
30304;DHT22;17112;48.636;10.152;2024-01-16T07:56:52;-1.10;65.40
30304;DHT22;17112;48.636;10.152;2024-01-16T07:59:18;-1.00;65.30
30304;DHT22;17112;48.636;10.152;2024-01-16T08:01:43;-1.00;65.30
30304;DHT22;17112;48.636;10.152;2024-01-16T08:04:09;-0.80;65.40
30304;DHT22;17112;48.636;10.152;2024-01-16T08:06:35;-0.80;65.40
30304;DHT22;17112;48.636;10.152;2024-01-16T08:09:01;-0.80;65.40
30304;DHT22;17112;48.636;10.152;2024-01-16T08:11:26;-0.70;65.30
30304;DHT22;17112;48.636;10.152;2024-01-16T08:13:52;-0.60;65.30
30304;DHT22;17112;48.636;10.152;2024-01-16T08:16:18;-0.60;65.10
30304;DHT22;17112;48.636;10.152;2024-01-16T08:18:43;-0.30;65.20
30304;DHT22;17112;48.636;10.152;2024-01-16T08:21:09;-0.50;64.80
30304;DHT22;17112;48.636;10.152;2024-01-16T08:23:35;-0.40;64.70
30304;DHT22;17112;48.636;10.152;2024-01-16T08:26:00;-0.30;64.60
30304;DHT22;17112;48.636;10.152;2024-01-16T08:28:26;-0.30;64.60
30304;DHT22;17112;48.636;10.152;2024-01-16T08:30:52;-0.20;64.50
30304;DHT22;17112;48.636;10.152;2024-01-16T08:33:19;-0.20;64.40
30304;DHT22;17112;48.636;10.152;2024-01-16T08:35:45;-0.10;64.40
30304;DHT22;17112;48.636;10.152;2024-01-16T08:38:10;0.00;64.30
30304;DHT22;17112;48.636;10.152;2024-01-16T08:40:36;0.20;64.50
30304;DHT22;17112;48.636;10.152;2024-01-16T08:43:02;0.40;64.50
30304;DHT22;17112;48.636;10.152;2024-01-16T08:45:29;0.20;64.40
30304;DHT22;17112;48.636;10.152;2024-01-16T08:47:54;0.20;64.30
30304;DHT22;17112;48.636;10.152;2024-01-16T08:50:20;0.50;64.50
30304;DHT22;17112;48.636;10.152;2024-01-16T08:52:46;0.50;64.40
30304;DHT22;17112;48.636;10.152;2024-01-16T08:55:12;0.60;64.20
30304;DHT22;17112;48.636;10.152;2024-01-16T08:57:38;0.70;64.10
30304;DHT22;17112;48.636;10.152;2024-01-16T09:00:05;0.80;63.90
30304;DHT22;17112;48.636;10.152;2024-01-16T09:02:31;0.90;63.60
30304;DHT22;17112;48.636;10.152;2024-01-16T09:04:59;1.00;63.40
30304;DHT22;17112;48.636;10.152;2024-01-16T09:07:26;1.30;63.20
30304;DHT22;17112;48.636;10.152;2024-01-16T09:09:52;1.20;63.00
30304;DHT22;17112;48.636;10.152;2024-01-16T09:12:18;1.30;63.00
30304;DHT22;17112;48.636;10.152;2024-01-16T09:14:43;1.40;62.80
30304;DHT22;17112;48.636;10.152;2024-01-16T09:17:09;1.40;63.40
30304;DHT22;17112;48.636;10.152;2024-01-16T09:19:36;1.50;62.60
30304;DHT22;17112;48.636;10.152;2024-01-16T09:22:01;1.60;62.60
30304;DHT22;17112;48.636;10.152;2024-01-16T09:24:28;1.70;62.50
30304;DHT22;17112;48.636;10.152;2024-01-16T09:26:54;2.10;62.50
30304;DHT22;17112;48.636;10.152;2024-01-16T09:29:20;1.90;62.20
30304;DHT22;17112;48.636;10.152;2024-01-16T09:31:47;1.90;62.10
30304;DHT22;17112;48.636;10.152;2024-01-16T09:34:13;1.90;61.90
30304;DHT22;17112;48.636;10.152;2024-01-16T09:36:39;2.00;61.80
30304;DHT22;17112;48.636;10.152;2024-01-16T09:39:06;2.00;61.60
30304;DHT22;17112;48.636;10.152;2024-01-16T09:41:34;2.10;61.60
30304;DHT22;17112;48.636;10.152;2024-01-16T09:44:00;2.20;61.40
30304;DHT22;17112;48.636;10.152;2024-01-16T09:46:26;2.20;61.20
30304;DHT22;17112;48.636;10.152;2024-01-16T09:48:55;2.30;61.00
30304;DHT22;17112;48.636;10.152;2024-01-16T09:51:22;2.30;60.80
30304;DHT22;17112;48.636;10.152;2024-01-16T09:53:48;2.40;60.90
30304;DHT22;17112;48.636;10.152;2024-01-16T09:56:18;2.40;60.80
30304;DHT22;17112;48.636;10.152;2024-01-16T09:58:48;2.40;61.30
30304;DHT22;17112;48.636;10.152;2024-01-16T10:01:16;2.70;60.70
30304;DHT22;17112;48.636;10.152;2024-01-16T10:03:45;2.60;60.60
30304;DHT22;17112;48.636;10.152;2024-01-16T10:06:11;2.60;60.50
30304;DHT22;17112;48.636;10.152;2024-01-16T10:08:37;3.00;60.80
30304;DHT22;17112;48.636;10.152;2024-01-16T10:11:03;3.00;60.60
30304;DHT22;17112;48.636;10.152;2024-01-16T10:13:31;3.10;60.60
30304;DHT22;17112;48.636;10.152;2024-01-16T10:15:58;2.90;60.30
30304;DHT22;17112;48.636;10.152;2024-01-16T10:18:30;3.20;60.50
30304;DHT22;17112;48.636;10.152;2024-01-16T10:20:56;3.10;60.10
30304;DHT22;17112;48.636;10.152;2024-01-16T10:23:30;3.20;60.20
30304;DHT22;17112;48.636;10.152;2024-01-16T10:26:11;3.30;59.70
30304;DHT22;17112;48.636;10.152;2024-01-16T10:28:41;3.40;59.50
30304;DHT22;17112;48.636;10.152;2024-01-16T10:31:11;3.50;59.70
30304;DHT22;17112;48.636;10.152;2024-01-16T10:33:38;3.70;59.70
30304;DHT22;17112;48.636;10.152;2024-01-16T10:38:37;3.70;59.60
30304;DHT22;17112;48.636;10.152;2024-01-16T10:41:17;3.70;59.70
30304;DHT22;17112;48.636;10.152;2024-01-16T10:43:44;3.80;59.30
30304;DHT22;17112;48.636;10.152;2024-01-16T10:46:16;3.90;59.80
30304;DHT22;17112;48.636;10.152;2024-01-16T10:49:04;4.00;59.40
30304;DHT22;17112;48.636;10.152;2024-01-16T10:51:30;4.10;59.60
30304;DHT22;17112;48.636;10.152;2024-01-16T10:54:05;4.30;59.60
30304;DHT22;17112;48.636;10.152;2024-01-16T10:56:31;4.40;59.10
30304;DHT22;17112;48.636;10.152;2024-01-16T10:59:18;4.50;59.30
30304;DHT22;17112;48.636;10.152;2024-01-16T11:01:56;4.60;58.90
30304;DHT22;17112;48.636;10.152;2024-01-16T11:04:24;4.70;58.90
30304;DHT22;17112;48.636;10.152;2024-01-16T11:06:52;4.80;58.90
30304;DHT22;17112;48.636;10.152;2024-01-16T11:09:18;4.80;58.50
30304;DHT22;17112;48.636;10.152;2024-01-16T11:11:46;4.90;58.40
30304;DHT22;17112;48.636;10.152;2024-01-16T11:14:15;5.00;58.20
30304;DHT22;17112;48.636;10.152;2024-01-16T11:16:42;5.00;58.00
30304;DHT22;17112;48.636;10.152;2024-01-16T11:19:09;5.00;58.10
30304;DHT22;17112;48.636;10.152;2024-01-16T11:21:38;5.00;58.10
30304;DHT22;17112;48.636;10.152;2024-01-16T11:24:04;5.10;58.10
30304;DHT22;17112;48.636;10.152;2024-01-16T11:26:34;5.20;58.20
30304;DHT22;17112;48.636;10.152;2024-01-16T11:31:52;5.30;57.30
30304;DHT22;17112;48.636;10.152;2024-01-16T11:37:07;5.40;57.20
30304;DHT22;17112;48.636;10.152;2024-01-16T11:39:33;5.50;57.90
30304;DHT22;17112;48.636;10.152;2024-01-16T11:41:59;5.60;57.90
30304;DHT22;17112;48.636;10.152;2024-01-16T11:44:48;5.70;57.70
30304;DHT22;17112;48.636;10.152;2024-01-16T11:47:19;5.80;56.90
30304;DHT22;17112;48.636;10.152;2024-01-16T11:49:50;5.90;57.50
30304;DHT22;17112;48.636;10.152;2024-01-16T11:52:43;6.10;57.30
30304;DHT22;17112;48.636;10.152;2024-01-16T12:00:32;6.70;56.60
30304;DHT22;17112;48.636;10.152;2024-01-16T12:03:03;6.90;57.30
30304;DHT22;17112;48.636;10.152;2024-01-16T12:05:29;7.20;57.00
30304;DHT22;17112;48.636;10.152;2024-01-16T12:07:55;7.40;56.70
30304;DHT22;17112;48.636;10.152;2024-01-16T12:10:22;7.70;56.50
30304;DHT22;17112;48.636;10.152;2024-01-16T12:12:50;7.90;55.80
30304;DHT22;17112;48.636;10.152;2024-01-16T12:15:18;8.10;55.20
30304;DHT22;17112;48.636;10.152;2024-01-16T12:18:01;8.20;54.70
30304;DHT22;17112;48.636;10.152;2024-01-16T12:20:30;8.30;53.80
30304;DHT22;17112;48.636;10.152;2024-01-16T12:23:06;8.40;54.30
30304;DHT22;17112;48.636;10.152;2024-01-16T12:25:37;8.50;54.00
30304;DHT22;17112;48.636;10.152;2024-01-16T12:28:04;8.60;53.50
30304;DHT22;17112;48.636;10.152;2024-01-16T12:30:34;8.60;53.50
30304;DHT22;17112;48.636;10.152;2024-01-16T12:33:11;8.70;52.90
30304;DHT22;17112;48.636;10.152;2024-01-16T12:35:42;8.80;52.00
30304;DHT22;17112;48.636;10.152;2024-01-16T12:38:09;8.70;51.90
30304;DHT22;17112;48.636;10.152;2024-01-16T12:40:36;8.60;52.00
30304;DHT22;17112;48.636;10.152;2024-01-16T12:43:03;8.50;52.00
30304;DHT22;17112;48.636;10.152;2024-01-16T12:45:30;8.40;51.50
30304;DHT22;17112;48.636;10.152;2024-01-16T12:47:59;8.30;51.00
30304;DHT22;17112;48.636;10.152;2024-01-16T12:50:26;8.20;51.30
30304;DHT22;17112;48.636;10.152;2024-01-16T12:53:02;8.10;50.80
30304;DHT22;17112;48.636;10.152;2024-01-16T12:55:29;8.00;51.10
30304;DHT22;17112;48.636;10.152;2024-01-16T13:00:46;7.90;51.60
30304;DHT22;17112;48.636;10.152;2024-01-16T13:03:20;7.90;52.10
30304;DHT22;17112;48.636;10.152;2024-01-16T13:05:58;7.90;51.60
30304;DHT22;17112;48.636;10.152;2024-01-16T13:08:23;7.80;51.50
30304;DHT22;17112;48.636;10.152;2024-01-16T13:11:09;7.80;52.20
30304;DHT22;17112;48.636;10.152;2024-01-16T13:13:36;7.70;51.30
30304;DHT22;17112;48.636;10.152;2024-01-16T13:16:04;7.70;51.90
30304;DHT22;17112;48.636;10.152;2024-01-16T13:18:33;7.70;52.20
30304;DHT22;17112;48.636;10.152;2024-01-16T13:21:00;7.60;52.40
30304;DHT22;17112;48.636;10.152;2024-01-16T13:23:27;7.70;52.20
30304;DHT22;17112;48.636;10.152;2024-01-16T13:25:54;7.70;52.10
30304;DHT22;17112;48.636;10.152;2024-01-16T13:28:28;7.70;52.60
30304;DHT22;17112;48.636;10.152;2024-01-16T13:30:55;7.70;52.10
30304;DHT22;17112;48.636;10.152;2024-01-16T13:33:23;7.70;52.20
30304;DHT22;17112;48.636;10.152;2024-01-16T13:35:52;7.70;52.00
30304;DHT22;17112;48.636;10.152;2024-01-16T13:38:20;7.80;52.20
30304;DHT22;17112;48.636;10.152;2024-01-16T13:40:46;7.80;52.00
30304;DHT22;17112;48.636;10.152;2024-01-16T13:43:12;7.90;51.70
30304;DHT22;17112;48.636;10.152;2024-01-16T13:45:38;7.90;51.50
30304;DHT22;17112;48.636;10.152;2024-01-16T13:48:05;7.90;51.50
30304;DHT22;17112;48.636;10.152;2024-01-16T13:50:32;7.90;50.80
30304;DHT22;17112;48.636;10.152;2024-01-16T13:52:59;7.90;50.80
30304;DHT22;17112;48.636;10.152;2024-01-16T13:55:25;7.90;51.00
30304;DHT22;17112;48.636;10.152;2024-01-16T13:57:51;7.80;50.80
30304;DHT22;17112;48.636;10.152;2024-01-16T14:00:17;7.80;50.60
30304;DHT22;17112;48.636;10.152;2024-01-16T14:02:44;7.80;50.90
30304;DHT22;17112;48.636;10.152;2024-01-16T14:05:11;7.80;50.90
30304;DHT22;17112;48.636;10.152;2024-01-16T14:07:43;7.70;50.80
30304;DHT22;17112;48.636;10.152;2024-01-16T14:10:12;7.60;50.70
30304;DHT22;17112;48.636;10.152;2024-01-16T14:12:39;7.60;50.90
30304;DHT22;17112;48.636;10.152;2024-01-16T14:15:05;7.50;51.00
30304;DHT22;17112;48.636;10.152;2024-01-16T14:17:35;7.50;51.10
30304;DHT22;17112;48.636;10.152;2024-01-16T14:20:01;7.40;51.30
30304;DHT22;17112;48.636;10.152;2024-01-16T14:22:26;7.40;51.00
30304;DHT22;17112;48.636;10.152;2024-01-16T14:24:53;7.30;50.90
30304;DHT22;17112;48.636;10.152;2024-01-16T14:27:19;7.30;51.10
30304;DHT22;17112;48.636;10.152;2024-01-16T14:29:44;7.20;51.10
30304;DHT22;17112;48.636;10.152;2024-01-16T14:32:10;7.20;51.10
30304;DHT22;17112;48.636;10.152;2024-01-16T14:34:36;7.10;51.10
30304;DHT22;17112;48.636;10.152;2024-01-16T14:37:02;7.00;51.10
30304;DHT22;17112;48.636;10.152;2024-01-16T14:39:28;6.90;51.10
30304;DHT22;17112;48.636;10.152;2024-01-16T14:41:56;6.90;51.20
30304;DHT22;17112;48.636;10.152;2024-01-16T14:44:24;6.90;51.40
30304;DHT22;17112;48.636;10.152;2024-01-16T14:46:50;6.80;51.60
30304;DHT22;17112;48.636;10.152;2024-01-16T14:49:17;6.70;51.80
30304;DHT22;17112;48.636;10.152;2024-01-16T14:51:42;6.60;51.80
30304;DHT22;17112;48.636;10.152;2024-01-16T14:54:08;6.50;51.80
30304;DHT22;17112;48.636;10.152;2024-01-16T14:56:34;6.40;51.80
30304;DHT22;17112;48.636;10.152;2024-01-16T14:58:59;6.30;52.10
30304;DHT22;17112;48.636;10.152;2024-01-16T15:01:25;6.20;52.30
30304;DHT22;17112;48.636;10.152;2024-01-16T15:03:51;6.10;52.40
30304;DHT22;17112;48.636;10.152;2024-01-16T15:06:16;6.00;52.40
30304;DHT22;17112;48.636;10.152;2024-01-16T15:08:43;5.80;52.30
30304;DHT22;17112;48.636;10.152;2024-01-16T15:11:09;5.70;52.20
30304;DHT22;17112;48.636;10.152;2024-01-16T15:13:35;5.60;52.40
30304;DHT22;17112;48.636;10.152;2024-01-16T15:16:02;5.50;52.60
30304;DHT22;17112;48.636;10.152;2024-01-16T15:18:28;5.30;52.60
30304;DHT22;17112;48.636;10.152;2024-01-16T15:20:54;5.20;52.50
30304;DHT22;17112;48.636;10.152;2024-01-16T15:23:20;5.10;52.30
30304;DHT22;17112;48.636;10.152;2024-01-16T15:25:46;5.00;52.30
30304;DHT22;17112;48.636;10.152;2024-01-16T15:28:11;4.80;52.30
30304;DHT22;17112;48.636;10.152;2024-01-16T15:30:38;4.70;52.40
30304;DHT22;17112;48.636;10.152;2024-01-16T15:33:04;4.60;52.40
30304;DHT22;17112;48.636;10.152;2024-01-16T15:35:30;4.50;52.60
30304;DHT22;17112;48.636;10.152;2024-01-16T15:37:56;4.40;52.80
30304;DHT22;17112;48.636;10.152;2024-01-16T15:40:22;4.30;52.80
30304;DHT22;17112;48.636;10.152;2024-01-16T15:42:48;4.20;53.00